Time;durP1;ratioP1;P1;durP2;ratioP2;P2;SDS_P1;SDS_P2;PMS_P1;PMS_P2;Temp;Humidity;BMP_temperature;BMP_pressure;BME280_temperature;BME280_humidity;BME280_pressure;Samples;Min_cycle;Max_cycle;Signal;HPM_P1;HPM_P2
2021/05/23 00:00:21;;;;;;;5.72;1.08;;;11.40;99.90;;;;;;5092397;28;20038;-64
2021/05/23 00:02:47;;;;;;;3.72;0.73;;;11.50;99.90;;;;;;5092105;28;20036;-64
2021/05/23 00:05:19;;;;;;;2.25;1.20;;;11.50;99.90;;;;;;5092308;28;20040;-64
2021/05/23 00:08:06;;;;;;;3.85;1.05;;;11.50;99.90;;;;;;5091904;28;20032;-64
2021/05/23 00:10:40;;;;;;;1.80;0.77;;;11.60;99.90;;;;;;5092406;28;20468;-64
2021/05/23 00:13:09;;;;;;;3.55;1.02;;;11.60;99.90;;;;;;5091970;28;20119;-63
2021/05/23 00:15:56;;;;;;;1.27;0.55;;;11.60;99.90;;;;;;5092242;28;20500;-64
2021/05/23 00:18:24;;;;;;;3.42;0.90;;;11.60;99.90;;;;;;5091566;28;20036;-64
2021/05/23 00:20:51;;;;;;;3.35;0.85;;;11.70;99.90;;;;;;5091792;28;20086;-64
2021/05/23 00:23:18;;;;;;;1.58;0.70;;;11.60;99.90;;;;;;5091884;28;20032;-64
2021/05/23 00:25:43;;;;;;;4.28;1.00;;;11.60;99.90;;;;;;5091768;28;20028;-64
2021/05/23 00:28:11;;;;;;;0.82;0.50;;;11.60;99.90;;;;;;5092045;28;20046;-64
2021/05/23 00:30:38;;;;;;;3.70;0.80;;;11.50;99.90;;;;;;5092007;28;20066;-64
2021/05/23 00:33:09;;;;;;;2.35;0.90;;;11.60;99.90;;;;;;5091943;28;20101;-64
2021/05/23 00:35:35;;;;;;;1.40;0.63;;;11.50;99.90;;;;;;5092113;28;20070;-63
2021/05/23 00:38:03;;;;;;;1.95;0.80;;;11.40;99.90;;;;;;5094083;28;20154;-64
2021/05/23 00:40:29;;;;;;;1.85;0.63;;;11.50;99.90;;;;;;5095466;28;20081;-64
2021/05/23 00:42:54;;;;;;;1.88;0.80;;;11.50;99.90;;;;;;5095669;28;20557;-63
2021/05/23 00:45:20;;;;;;;1.25;0.57;;;11.50;99.90;;;;;;5095411;28;20028;-64
2021/05/23 00:47:47;;;;;;;5.88;0.68;;;11.60;99.90;;;;;;5095433;28;20032;-64
2021/05/23 00:50:25;;;;;;;1.98;0.80;;;11.60;99.90;;;;;;5094476;28;20113;-64
2021/05/23 00:52:54;;;;;;;2.05;0.70;;;11.70;99.90;;;;;;5095324;28;20184;-63
2021/05/23 00:55:22;;;;;;;1.63;0.55;;;11.70;99.90;;;;;;5095333;28;20108;-64
2021/05/23 00:57:50;;;;;;;2.97;1.00;;;11.80;99.90;;;;;;5095265;28;20070;-64
2021/05/23 01:00:45;;;;;;;2.65;0.70;;;11.90;99.90;;;;;;5095440;28;20032;-64
2021/05/23 01:03:31;;;;;;;1.80;0.70;;;11.90;99.90;;;;;;5095393;28;20028;-64
2021/05/23 01:06:04;;;;;;;2.05;0.57;;;11.80;99.90;;;;;;5084011;28;20500;-64
2021/05/23 01:08:31;;;;;;;3.17;0.75;;;11.70;99.90;;;;;;5093844;28;20059;-64
2021/05/23 01:11:28;;;;;;;3.53;0.80;;;11.60;99.90;;;;;;5094841;28;20059;-64
2021/05/23 01:14:00;;;;;;;4.05;0.80;;;11.70;99.90;;;;;;5094367;28;20489;-64
2021/05/23 01:16:36;;;;;;;4.25;1.40;;;11.60;99.90;;;;;;5095055;28;20055;-64
2021/05/23 01:19:13;;;;;;;5.22;1.40;;;11.60;99.90;;;;;;5093321;28;20068;-64
2021/05/23 01:21:45;;;;;;;3.58;1.05;;;11.60;99.90;;;;;;5093411;28;20078;-64
2021/05/23 01:24:25;;;;;;;4.57;0.60;;;11.60;99.90;;;;;;5094879;28;20078;-64
2021/05/23 01:26:54;;;;;;;3.27;0.73;;;11.70;99.90;;;;;;5093726;28;20066;-63
2021/05/23 01:29:21;;;;;;;1.58;0.63;;;11.80;99.90;;;;;;5093404;28;20856;-63
2021/05/23 01:31:48;;;;;;;2.85;0.50;;;11.70;99.90;;;;;;5094774;28;20040;-63
2021/05/23 01:34:21;;;;;;;6.38;0.68;;;11.80;99.90;;;;;;5094372;28;20024;-63
2021/05/23 01:36:49;;;;;;;2.50;0.70;;;11.80;99.90;;;;;;5094536;28;20024;-63
2021/05/23 01:39:15;;;;;;;2.97;0.93;;;12.00;99.90;;;;;;5094281;28;20058;-64
2021/05/23 01:41:42;;;;;;;3.53;1.27;;;11.80;99.90;;;;;;5093278;28;20068;-64
2021/05/23 01:44:09;;;;;;;2.53;0.70;;;11.70;99.90;;;;;;5094362;28;20036;-64
2021/05/23 01:46:36;;;;;;;2.00;0.60;;;11.70;99.90;;;;;;5094287;28;20023;-63
2021/05/23 01:49:04;;;;;;;1.60;0.73;;;11.80;99.90;;;;;;5092237;28;20039;-64
2021/05/23 01:51:30;;;;;;;2.72;0.60;;;11.80;99.90;;;;;;5094431;28;20032;-64
2021/05/23 01:53:56;;;;;;;2.45;0.73;;;11.70;99.90;;;;;;5094161;28;20039;-64
2021/05/23 01:56:21;;;;;;;1.98;0.50;;;11.70;99.90;;;;;;5094108;28;20104;-63
2021/05/23 01:58:47;;;;;;;1.92;0.65;;;11.60;99.90;;;;;;5094015;28;20119;-63
2021/05/23 02:01:13;;;;;;;3.10;0.98;;;11.50;99.90;;;;;;5093929;28;20205;-63
2021/05/23 02:03:39;;;;;;;2.53;0.60;;;11.60;99.90;;;;;;5092869;28;20086;-63
2021/05/23 02:06:05;;;;;;;1.73;0.60;;;11.50;99.90;;;;;;5094177;28;20032;-63
2021/05/23 02:08:32;;;;;;;2.13;0.50;;;11.60;99.90;;;;;;5094062;28;20097;-64
2021/05/23 02:11:07;;;;;;;1.58;0.50;;;11.60;99.90;;;;;;5093690;28;20058;-63
2021/05/23 02:13:38;;;;;;;1.88;0.50;;;11.50;99.90;;;;;;5094037;28;20119;-63
2021/05/23 02:16:06;;;;;;;1.98;0.50;;;11.60;99.90;;;;;;5092356;28;20431;-63
2021/05/23 02:18:34;;;;;;;1.65;0.90;;;11.50;99.90;;;;;;5093431;28;20083;-64
2021/05/23 02:21:01;;;;;;;2.92;0.85;;;11.50;99.90;;;;;;5092152;28;20036;-63
2021/05/23 02:23:27;;;;;;;2.60;0.50;;;11.50;99.90;;;;;;5093767;28;20036;-63
2021/05/23 02:25:53;;;;;;;2.35;0.68;;;11.50;99.90;;;;;;5093687;28;20464;-63
2021/05/23 02:28:20;;;;;;;2.58;0.85;;;11.50;99.90;;;;;;5093674;28;20073;-64
2021/05/23 02:30:55;;;;;;;4.35;1.25;;;11.40;99.90;;;;;;5093343;28;20024;-64
2021/05/23 02:33:25;;;;;;;3.35;0.93;;;11.40;99.90;;;;;;5093410;28;20500;-63
2021/05/23 02:35:54;;;;;;;3.20;1.23;;;11.40;99.90;;;;;;5093443;28;20024;-64
2021/05/23 02:38:21;;;;;;;3.17;1.13;;;11.40;99.90;;;;;;5093169;28;20469;-63
2021/05/23 02:40:49;;;;;;;3.35;0.80;;;11.40;99.90;;;;;;5093101;28;20085;-63
2021/05/23 02:43:18;;;;;;;3.25;0.60;;;11.40;99.90;;;;;;5093091;28;20028;-63
2021/05/23 02:45:45;;;;;;;1.77;0.70;;;11.40;99.90;;;;;;5093531;28;20070;-63
2021/05/23 02:48:12;;;;;;;1.67;0.70;;;11.40;99.90;;;;;;5093193;28;20476;-63
2021/05/23 02:50:43;;;;;;;1.05;0.60;;;11.40;99.90;;;;;;5093045;28;20039;-63
2021/05/23 02:53:10;;;;;;;2.93;0.87;;;11.30;99.90;;;;;;5093250;28;20032;-63
2021/05/23 02:55:38;;;;;;;3.03;0.52;;;11.30;99.90;;;;;;5093186;28;20286;-63
2021/05/23 02:58:06;;;;;;;1.45;0.70;;;11.30;99.90;;;;;;5092829;28;20414;-63
2021/05/23 03:00:33;;;;;;;1.60;0.40;;;11.30;99.90;;;;;;5092145;28;20035;-63
2021/05/23 03:02:59;;;;;;;3.10;0.63;;;11.30;99.90;;;;;;5093038;28;20028;-63
2021/05/23 03:05:25;;;;;;;0.63;0.32;;;11.30;99.90;;;;;;5093137;28;20024;-63
2021/05/23 03:07:55;;;;;;;3.92;0.57;;;11.30;99.90;;;;;;5092624;28;20028;-63
2021/05/23 03:10:31;;;;;;;2.25;0.50;;;11.30;99.90;;;;;;5091394;28;20028;-63
2021/05/23 03:13:00;;;;;;;1.88;0.50;;;11.20;99.90;;;;;;5092808;28;20058;-63
2021/05/23 03:15:29;;;;;;;2.65;0.43;;;11.30;99.90;;;;;;5092663;28;20068;-63
2021/05/23 03:17:55;;;;;;;1.02;0.45;;;11.30;99.90;;;;;;5091402;28;20032;-63
2021/05/23 03:20:23;;;;;;;1.77;0.60;;;11.20;99.90;;;;;;5092251;28;20127;-63
2021/05/23 03:22:53;;;;;;;3.20;0.52;;;11.20;99.90;;;;;;5092726;28;20036;-63
2021/05/23 03:25:21;;;;;;;1.00;0.50;;;11.30;99.90;;;;;;5092487;28;20040;-63
2021/05/23 03:27:47;;;;;;;0.98;0.40;;;11.30;99.90;;;;;;5092534;28;20107;-63
2021/05/23 03:30:30;;;;;;;1.27;0.45;;;11.30;99.90;;;;;;5092565;28;20028;-63
2021/05/23 03:32:57;;;;;;;3.13;0.57;;;11.20;99.90;;;;;;5092306;28;20455;-63
2021/05/23 03:35:23;;;;;;;1.10;0.50;;;11.20;99.90;;;;;;5092482;28;20036;-63
2021/05/23 03:37:49;;;;;;;3.03;0.50;;;11.20;99.90;;;;;;5092399;28;20042;-63
2021/05/23 03:40:17;;;;;;;2.40;0.63;;;11.20;99.90;;;;;;5092205;28;20056;-63
2021/05/23 03:42:46;;;;;;;1.55;0.40;;;11.20;99.90;;;;;;5092265;28;20097;-63
2021/05/23 03:45:17;;;;;;;2.28;0.47;;;11.10;99.90;;;;;;5092142;28;20059;-63
2021/05/23 03:47:44;;;;;;;0.82;0.50;;;11.20;99.90;;;;;;5092517;28;20024;-63
2021/05/23 03:50:12;;;;;;;1.02;0.60;;;11.20;99.90;;;;;;5091936;28;20063;-63
2021/05/23 03:52:38;;;;;;;3.33;0.50;;;11.30;99.90;;;;;;5092415;28;20671;-63
2021/05/23 03:55:06;;;;;;;0.63;0.47;;;11.20;99.90;;;;;;5091991;28;20075;-63
2021/05/23 03:57:32;;;;;;;1.77;0.60;;;11.20;99.90;;;;;;5090780;28;20024;-63
2021/05/23 03:59:58;;;;;;;1.05;0.40;;;11.30;99.90;;;;;;5092173;28;20032;-63
2021/05/23 04:02:23;;;;;;;3.22;0.55;;;11.30;99.90;;;;;;5092291;28;20055;-63
2021/05/23 04:04:56;;;;;;;4.50;0.68;;;11.20;99.90;;;;;;5092188;28;20050;-63
2021/05/23 04:07:24;;;;;;;1.05;0.60;;;11.20;99.90;;;;;;5092082;28;20032;-63
2021/05/23 04:09:51;;;;;;;2.15;0.57;;;11.20;99.90;;;;;;5092179;28;20032;-62
2021/05/23 04:12:22;;;;;;;2.33;0.70;;;11.20;99.90;;;;;;5092372;28;20041;-63
2021/05/23 04:14:48;;;;;;;2.28;0.73;;;11.30;99.90;;;;;;5096334;28;20127;-63
2021/05/23 04:17:14;;;;;;;4.80;0.90;;;11.20;99.90;;;;;;5094965;28;20158;-62
2021/05/23 04:19:40;;;;;;;3.60;0.90;;;11.10;99.90;;;;;;5094556;28;20044;-62
2021/05/23 04:22:06;;;;;;;3.60;0.90;;;11.20;99.90;;;;;;5095972;28;20443;-63
2021/05/23 04:24:36;;;;;;;2.95;0.82;;;11.20;99.90;;;;;;5096133;28;20383;-63
2021/05/23 04:27:03;;;;;;;1.38;0.77;;;11.00;99.90;;;;;;5094427;28;20034;-63
2021/05/23 04:29:28;;;;;;;5.55;0.60;;;11.00;99.90;;;;;;5095811;28;20036;-62
2021/05/23 04:31:54;;;;;;;3.13;0.75;;;11.00;99.90;;;;;;5094322;28;20036;-63
2021/05/23 04:34:20;;;;;;;1.95;0.70;;;11.00;99.90;;;;;;5095591;28;20028;-62
2021/05/23 04:36:46;;;;;;;2.22;0.70;;;11.10;99.90;;;;;;5095752;28;20028;-63
2021/05/23 04:39:11;;;;;;;2.67;1.33;;;11.00;99.90;;;;;;5095436;28;20027;-62
2021/05/23 04:41:37;;;;;;;3.90;0.82;;;11.10;99.90;;;;;;5095610;28;20024;-63
2021/05/23 04:44:05;;;;;;;2.75;0.75;;;11.10;99.90;;;;;;5095650;28;20418;-62
2021/05/23 04:46:30;;;;;;;2.42;1.13;;;11.10;99.90;;;;;;5095311;28;20400;-63
2021/05/23 04:48:56;;;;;;;7.47;2.00;;;11.10;99.90;;;;;;5094344;28;20107;-63
2021/05/23 04:51:22;;;;;;;3.50;1.13;;;11.20;99.90;;;;;;5095546;28;20135;-62
2021/05/23 04:53:48;;;;;;;2.78;0.93;;;11.20;99.90;;;;;;5095585;28;20069;-62
2021/05/23 04:56:13;;;;;;;2.72;0.90;;;11.20;99.90;;;;;;5095141;28;20456;-62
2021/05/23 04:58:39;;;;;;;5.13;0.95;;;11.20;99.90;;;;;;5095494;28;20480;-63
2021/05/23 05:01:05;;;;;;;2.58;0.90;;;11.10;99.90;;;;;;5094906;28;20561;-63
2021/05/23 05:03:31;;;;;;;4.38;0.82;;;11.10;99.90;;;;;;5095444;28;20028;-63
2021/05/23 05:05:56;;;;;;;2.63;0.80;;;11.10;99.90;;;;;;5094876;28;20111;-63
2021/05/23 05:08:22;;;;;;;2.78;0.93;;;11.00;99.90;;;;;;5095144;28;20077;-64
2021/05/23 05:10:48;;;;;;;4.75;0.90;;;11.00;99.90;;;;;;5095077;28;20024;-63
2021/05/23 05:13:14;;;;;;;3.88;1.20;;;11.00;99.90;;;;;;5095105;28;20039;-63
2021/05/23 05:15:39;;;;;;;4.00;1.00;;;11.00;99.90;;;;;;5094604;28;20518;-63
2021/05/23 05:18:05;;;;;;;3.20;0.90;;;10.90;99.90;;;;;;5094426;28;20076;-65
2021/05/23 05:20:32;;;;;;;2.20;0.63;;;10.90;99.90;;;;;;5094664;28;20032;-68
2021/05/23 05:22:57;;;;;;;3.33;1.10;;;10.90;99.90;;;;;;5093872;28;20053;-68
2021/05/23 05:25:24;;;;;;;4.10;0.60;;;10.80;99.90;;;;;;5093806;28;20600;-67
2021/05/23 05:27:50;;;;;;;3.83;0.85;;;10.90;99.90;;;;;;5094646;28;20111;-68
2021/05/23 05:30:16;;;;;;;2.78;0.77;;;11.00;99.90;;;;;;5094666;28;20051;-69
2021/05/23 05:32:42;;;;;;;2.33;0.57;;;11.00;99.90;;;;;;5094813;28;20108;-69
2021/05/23 05:35:09;;;;;;;3.25;0.77;;;11.00;99.90;;;;;;5094577;28;20055;-69
2021/05/23 05:37:35;;;;;;;2.88;0.80;;;11.00;99.90;;;;;;5093090;28;20028;-69
2021/05/23 05:40:03;;;;;;;2.88;0.80;;;11.00;99.90;;;;;;5094517;28;20388;-69
2021/05/23 05:42:29;;;;;;;2.70;0.80;;;10.90;99.90;;;;;;5094249;28;20032;-68
2021/05/23 05:44:55;;;;;;;1.73;0.80;;;11.00;99.90;;;;;;5094289;28;20439;-70
2021/05/23 05:47:20;;;;;;;2.00;0.70;;;11.10;99.90;;;;;;5094251;28;20032;-69
2021/05/23 05:49:46;;;;;;;2.92;0.60;;;11.00;99.90;;;;;;5094406;28;20034;-69
2021/05/23 05:52:12;;;;;;;2.42;0.60;;;11.20;99.90;;;;;;5094334;28;20024;-69
2021/05/23 05:54:38;;;;;;;2.88;0.80;;;11.20;99.90;;;;;;5094325;28;20084;-69
2021/05/23 05:57:04;;;;;;;1.60;0.82;;;11.30;99.90;;;;;;5093988;28;20120;-69
2021/05/23 05:59:30;;;;;;;4.38;1.17;;;11.20;99.90;;;;;;5094212;28;20036;-69
2021/05/23 06:01:55;;;;;;;4.30;1.00;;;11.30;99.90;;;;;;5093778;28;20384;-69
2021/05/23 06:04:21;;;;;;;1.17;0.60;;;11.20;99.90;;;;;;5093756;28;20059;-67
2021/05/23 06:06:47;;;;;;;4.38;1.20;;;11.10;99.90;;;;;;5093715;28;20036;-67
2021/05/23 06:09:13;;;;;;;2.35;0.70;;;11.20;99.90;;;;;;5093717;28;20081;-68
2021/05/23 06:11:39;;;;;;;5.05;0.77;;;11.50;99.90;;;;;;5093706;28;20031;-69
2021/05/23 06:14:04;;;;;;;1.73;0.68;;;11.60;99.90;;;;;;5093577;28;20077;-68
2021/05/23 06:16:30;;;;;;;2.72;0.70;;;11.60;99.90;;;;;;5093763;28;20036;-69
2021/05/23 06:18:56;;;;;;;4.30;1.10;;;11.60;99.90;;;;;;5093417;28;20052;-69
2021/05/23 06:21:22;;;;;;;1.67;0.90;;;11.50;99.90;;;;;;5093266;28;20621;-68
2021/05/23 06:23:47;;;;;;;3.15;0.77;;;11.60;99.90;;;;;;5093706;28;20058;-68
2021/05/23 06:26:14;;;;;;;2.40;0.85;;;11.60;99.90;;;;;;5093538;28;20028;-68
2021/05/23 06:28:43;;;;;;;1.92;0.88;;;11.60;99.90;;;;;;5092479;28;20031;-69
2021/05/23 06:31:10;;;;;;;2.83;0.90;;;11.80;99.90;;;;;;5092139;28;20054;-68
2021/05/23 06:33:36;;;;;;;4.93;1.85;;;11.70;99.90;;;;;;5093332;28;20028;-68
2021/05/23 06:36:02;;;;;;;1.95;0.80;;;11.50;99.90;;;;;;5092562;28;20385;-69
2021/05/23 06:38:28;;;;;;;3.72;0.90;;;11.60;99.90;;;;;;5093129;28;20028;-68
2021/05/23 06:40:54;;;;;;;2.17;0.90;;;11.60;99.90;;;;;;5093402;28;20028;-67
2021/05/23 06:43:19;;;;;;;2.50;0.90;;;11.50;99.90;;;;;;5092996;28;20036;-68
2021/05/23 06:45:45;;;;;;;2.33;1.05;;;11.50;99.90;;;;;;5093523;28;20137;-68
2021/05/23 06:48:11;;;;;;;4.93;1.27;;;11.50;99.90;;;;;;5091967;28;20361;-68
2021/05/23 06:50:38;;;;;;;3.83;0.98;;;11.50;99.90;;;;;;5093099;28;20028;-68
2021/05/23 06:53:05;;;;;;;9.20;1.13;;;11.60;99.90;;;;;;5092769;28;20115;-69
2021/05/23 06:55:31;;;;;;;6.72;1.48;;;11.50;99.90;;;;;;5091932;28;20358;-69
2021/05/23 06:57:56;;;;;;;3.47;0.80;;;11.40;99.90;;;;;;5093029;28;20028;-69
2021/05/23 07:00:22;;;;;;;1.20;0.70;;;11.40;99.90;;;;;;5092710;28;20553;-69
2021/05/23 07:02:49;;;;;;;3.63;1.17;;;11.40;99.90;;;;;;5092666;28;20122;-69
2021/05/23 07:05:15;;;;;;;4.82;1.20;;;11.50;99.90;;;;;;5091828;28;20040;-68
2021/05/23 07:07:41;;;;;;;4.40;0.88;;;11.60;99.90;;;;;;5092600;28;20115;-68
2021/05/23 07:10:07;;;;;;;6.13;1.10;;;11.60;99.90;;;;;;5092699;28;20111;-68
2021/05/23 07:12:33;;;;;;;3.13;0.80;;;11.70;99.90;;;;;;5092882;28;20107;-68
2021/05/23 07:14:59;;;;;;;1.95;0.85;;;11.80;99.90;;;;;;5091544;28;20032;-68
2021/05/23 07:17:25;;;;;;;3.90;1.08;;;11.90;99.90;;;;;;5092555;28;20138;-68
2021/05/23 07:19:50;;;;;;;2.42;0.90;;;11.90;99.90;;;;;;5092448;28;20118;-67
2021/05/23 07:22:16;;;;;;;5.43;1.20;;;11.90;99.90;;;;;;5092446;28;20051;-70
2021/05/23 07:24:42;;;;;;;3.22;1.10;;;12.00;99.90;;;;;;5092565;28;20407;-67
2021/05/23 07:27:08;;;;;;;3.70;1.10;;;12.10;99.90;;;;;;5092497;28;20043;-74
2021/05/23 07:29:34;;;;;;;5.57;1.00;;;12.10;99.90;;;;;;5078937;28;20059;-66
2021/05/23 07:32:00;;;;;;;4.80;0.90;;;12.20;99.90;;;;;;5092009;28;20042;-67
2021/05/23 07:34:25;;;;;;;3.65;0.98;;;12.10;99.90;;;;;;5090727;28;20107;-66
2021/05/23 07:36:51;;;;;;;3.42;1.00;;;12.20;99.90;;;;;;5079491;28;20032;-66
2021/05/23 07:39:17;;;;;;;4.18;1.20;;;12.10;99.90;;;;;;5071933;28;20107;-66
2021/05/23 07:41:44;;;;;;;1.65;0.80;;;12.10;99.90;;;;;;5072175;28;20036;-67
2021/05/23 07:44:10;;;;;;;1.77;0.80;;;12.10;99.90;;;;;;5071825;28;20032;-66
2021/05/23 07:46:35;;;;;;;1.58;0.70;;;12.20;99.90;;;;;;5071377;28;20032;-66
2021/05/23 07:49:01;;;;;;;2.28;0.93;;;12.40;99.90;;;;;;5072233;28;20380;-66
2021/05/23 07:51:27;;;;;;;2.72;0.82;;;12.60;99.90;;;;;;5072205;28;20032;-66
2021/05/23 07:53:53;;;;;;;1.73;0.90;;;12.60;99.90;;;;;;5072214;28;20381;-65
2021/05/23 07:56:19;;;;;;;3.95;1.20;;;12.60;99.90;;;;;;5071884;28;20036;-66
2021/05/23 07:58:45;;;;;;;2.72;0.80;;;12.60;99.90;;;;;;5072015;28;20538;-67
2021/05/23 08:01:21;;;;;;;3.97;0.70;;;12.70;99.90;;;;;;5089146;28;20460;-68
2021/05/23 08:03:47;;;;;;;2.95;0.80;;;12.80;99.90;;;;;;5092252;28;20034;-67
2021/05/23 08:06:13;;;;;;;2.95;0.90;;;12.80;99.90;;;;;;5090918;28;20124;-64
2021/05/23 08:08:39;;;;;;;2.70;0.90;;;12.90;99.90;;;;;;5091858;28;20040;-69
2021/05/23 08:11:05;;;;;;;2.55;0.75;;;12.90;99.90;;;;;;5092138;28;20032;-66
2021/05/23 08:13:31;;;;;;;4.13;0.88;;;12.80;99.90;;;;;;5090848;28;20384;-66
2021/05/23 08:15:58;;;;;;;0.65;0.50;;;12.90;99.90;;;;;;5090915;28;20070;-67
2021/05/23 08:18:29;;;;;;;1.17;0.63;;;13.00;99.90;;;;;;5091726;28;20066;-67
2021/05/23 08:21:00;;;;;;;3.28;0.82;;;13.10;99.90;;;;;;5091798;28;20060;-68
2021/05/23 08:23:28;;;;;;;1.92;0.77;;;13.00;99.90;;;;;;5091963;28;20058;-67
2021/05/23 08:25:55;;;;;;;3.38;0.80;;;13.00;99.90;;;;;;5091915;28;20020;-67
2021/05/23 08:28:22;;;;;;;2.13;0.68;;;13.00;99.90;;;;;;5091581;28;20040;-67
2021/05/23 08:30:48;;;;;;;2.92;0.90;;;13.10;99.90;;;;;;5077895;28;20477;-68
2021/05/23 08:33:14;;;;;;;2.70;0.70;;;13.20;99.90;;;;;;5070288;28;20047;-67
2021/05/23 08:35:42;;;;;;;1.13;0.70;;;13.30;99.90;;;;;;5071517;28;20029;-64
2021/05/23 08:38:08;;;;;;;2.58;0.73;;;13.20;99.90;;;;;;5071423;28;20033;-69
2021/05/23 08:40:38;;;;;;;4.32;0.95;;;13.20;99.90;;;;;;5071582;28;20020;-68
2021/05/23 08:43:09;;;;;;;5.18;0.70;;;13.30;99.90;;;;;;5070248;28;20048;-68
2021/05/23 08:45:35;;;;;;;2.33;0.50;;;13.30;99.90;;;;;;5071429;28;20028;-68
2021/05/23 08:48:01;;;;;;;3.15;0.82;;;13.20;99.90;;;;;;5071435;28;20043;-68
2021/05/23 08:50:28;;;;;;;1.00;0.40;;;13.30;99.90;;;;;;5071320;28;20029;-67
2021/05/23 08:53:00;;;;;;;3.55;0.95;;;13.40;99.90;;;;;;5071664;28;20029;-68
2021/05/23 08:55:28;;;;;;;2.63;0.60;;;13.40;99.90;;;;;;5071117;28;20090;-69
2021/05/23 08:57:56;;;;;;;3.15;0.75;;;13.60;99.90;;;;;;5071340;28;20033;-68
2021/05/23 09:00:27;;;;;;;2.17;0.60;;;13.40;99.90;;;;;;5083005;28;20032;-69
2021/05/23 09:03:00;;;;;;;1.48;0.68;;;13.30;99.90;;;;;;5093490;28;20030;-66
2021/05/23 09:05:41;;;;;;;0.93;0.70;;;13.40;99.90;;;;;;5095154;28;20024;-67
2021/05/23 09:08:18;;;;;;;4.68;0.57;;;13.40;99.90;;;;;;5094975;28;20056;-68
2021/05/23 09:10:44;;;;;;;6.20;0.80;;;13.60;99.90;;;;;;5095209;28;20115;-69
2021/05/23 09:13:13;;;;;;;1.85;0.70;;;13.80;99.90;;;;;;5095104;28;20139;-69
2021/05/23 09:15:39;;;;;;;4.80;0.80;;;13.80;99.90;;;;;;5094912;28;20028;-68
2021/05/23 09:18:10;;;;;;;3.08;0.90;;;13.60;99.90;;;;;;5094733;28;20484;-68
2021/05/23 09:20:42;;;;;;;1.85;0.80;;;13.40;99.90;;;;;;5094687;28;20040;-68
2021/05/23 09:23:20;;;;;;;1.35;0.77;;;13.50;99.90;;;;;;5094770;28;20036;-69
2021/05/23 09:25:46;;;;;;;2.80;0.63;;;13.60;99.90;;;;;;5093382;28;20528;-69
2021/05/23 09:28:12;;;;;;;3.42;0.60;;;13.80;99.90;;;;;;5094731;28;20438;-69
2021/05/23 09:30:41;;;;;;;3.10;0.77;;;13.80;99.90;;;;;;5081919;28;20021;-69
2021/05/23 09:33:08;;;;;;;8.63;1.02;;;13.70;99.90;;;;;;5083556;28;20052;-69
2021/05/23 09:35:43;;;;;;;2.72;0.70;;;13.70;99.90;;;;;;5094448;28;20031;-68
2021/05/23 09:38:09;;;;;;;1.65;0.68;;;13.80;99.90;;;;;;5094423;28;20028;-69
2021/05/23 09:40:38;;;;;;;3.53;0.55;;;14.10;99.90;;;;;;5074628;28;20455;-70
2021/05/23 09:43:07;;;;;;;1.48;0.70;;;14.00;99.90;;;;;;5072958;28;20037;-68
2021/05/23 09:45:52;;;;;;;2.53;0.68;;;14.10;99.90;;;;;;5072847;28;20043;-69
2021/05/23 09:48:26;;;;;;;4.10;0.68;;;14.20;99.90;;;;;;5073779;28;20040;-69
2021/05/23 09:50:55;;;;;;;3.20;1.80;;;14.30;99.90;;;;;;5074028;28;20033;-68
2021/05/23 09:53:34;;;;;;;3.13;0.70;;;14.30;99.90;;;;;;5073581;28;20028;-68
2021/05/23 09:56:07;;;;;;;3.38;0.65;;;14.50;99.90;;;;;;5073212;28;20042;-68
2021/05/23 09:58:36;;;;;;;1.30;0.57;;;14.60;99.90;;;;;;5073879;28;20467;-68
2021/05/23 10:01:04;;;;;;;2.67;0.80;;;14.50;99.90;;;;;;5057556;28;20477;-69
2021/05/23 10:03:33;;;;;;;2.78;0.68;;;14.40;99.90;;;;;;5053693;28;20067;-69
2021/05/23 10:06:00;;;;;;;4.22;0.90;;;14.70;99.90;;;;;;5053744;28;20056;-70
2021/05/23 10:08:28;;;;;;;1.80;0.70;;;14.80;99.90;;;;;;5053771;28;20037;-69
2021/05/23 10:10:55;;;;;;;1.55;0.50;;;14.80;99.90;;;;;;5053056;28;20465;-70
2021/05/23 10:13:24;;;;;;;4.95;0.80;;;14.90;99.90;;;;;;5053546;28;20033;-69
2021/05/23 10:15:51;;;;;;;1.90;0.88;;;14.70;99.90;;;;;;5053574;28;20045;-69
2021/05/23 10:18:27;;;;;;;2.92;0.80;;;15.10;99.90;;;;;;5053054;28;20040;-69
2021/05/23 10:20:57;;;;;;;2.47;0.95;;;15.10;99.00;;;;;;5053142;28;20389;-69
2021/05/23 10:23:38;;;;;;;3.35;1.05;;;15.20;99.30;;;;;;5053466;28;20469;-69
2021/05/23 10:26:08;;;;;;;2.00;0.55;;;15.20;99.90;;;;;;5051766;28;20405;-69
2021/05/23 10:28:45;;;;;;;2.72;0.70;;;15.10;99.10;;;;;;5051815;28;20141;-69
2021/05/23 10:31:12;;;;;;;1.30;0.50;;;15.10;99.30;;;;;;5070072;28;20033;-70
2021/05/23 10:33:52;;;;;;;2.05;0.57;;;15.00;98.10;;;;;;5072891;28;20021;-69
2021/05/23 10:36:39;;;;;;;2.92;0.40;;;15.00;99.60;;;;;;5071578;28;20525;-70
2021/05/23 10:39:14;;;;;;;2.08;0.47;;;14.90;98.70;;;;;;5073138;28;20036;-69
2021/05/23 10:41:42;;;;;;;3.92;1.10;;;15.00;99.80;;;;;;5073030;28;20476;-69
2021/05/23 10:44:12;;;;;;;1.48;0.50;;;15.10;98.60;;;;;;5073120;28;20028;-70
2021/05/23 10:46:50;;;;;;;3.40;0.70;;;15.20;99.50;;;;;;5072688;28;20052;-69
2021/05/23 10:49:17;;;;;;;1.13;0.70;;;15.40;99.50;;;;;;5072736;28;20325;-69
2021/05/23 10:51:57;;;;;;;1.70;0.50;;;15.50;98.90;;;;;;5072636;28;20089;-69
2021/05/23 10:54:23;;;;;;;7.45;2.20;;;15.40;99.00;;;;;;5072619;28;20033;-69
2021/05/23 10:57:00;;;;;;;3.65;1.23;;;15.10;98.60;;;;;;5071303;28;20036;-70
2021/05/23 10:59:32;;;;;;;2.28;0.57;;;14.90;99.80;;;;;;5069745;28;20040;-69
2021/05/23 11:01:59;;;;;;;2.38;0.50;;;15.00;98.60;;;;;;5052474;28;20064;-69
2021/05/23 11:04:41;;;;;;;0.98;0.38;;;14.80;99.80;;;;;;5031925;28;20045;-69
2021/05/23 11:07:12;;;;;;;1.05;0.60;;;14.60;99.90;;;;;;5051572;28;20485;-68
2021/05/23 11:09:41;;;;;;;4.32;0.80;;;14.20;99.90;;;;;;5051514;28;20063;-69
2021/05/23 11:12:15;;;;;;;2.65;0.70;;;13.60;99.90;;;;;;5052358;28;20032;-68
2021/05/23 11:14:52;;;;;;;;;;;13.20;99.90;;;;;;5052850;28;20028;-69
2021/05/23 11:17:22;;;;;;;3.35;0.75;;;13.10;99.90;;;;;;5051285;28;19934;-70
2021/05/23 11:19:48;;;;;;;0.88;0.45;;;13.10;99.90;;;;;;5050845;28;20076;-70
2021/05/23 11:22:14;;;;;;;1.02;0.30;;;13.40;99.90;;;;;;5051578;28;20068;-71
2021/05/23 11:24:45;;;;;;;1.98;0.30;;;13.70;99.90;;;;;;5052031;28;20111;-70
2021/05/23 11:27:19;;;;;;;2.40;0.50;;;14.00;99.90;;;;;;5052314;28;20037;-69
2021/05/23 11:29:52;;;;;;;0.47;0.22;;;14.20;99.90;;;;;;5052117;28;20033;-70
2021/05/23 11:32:18;;;;;;;1.25;0.38;;;14.40;99.90;;;;;;5052008;28;20037;-71
2021/05/23 11:34:45;;;;;;;3.55;1.80;;;14.50;99.90;;;;;;5050808;28;20032;-70
2021/05/23 11:37:11;;;;;;;1.33;0.47;;;14.70;99.90;;;;;;5064232;28;20032;-71
2021/05/23 11:39:37;;;;;;;1.15;0.50;;;14.80;99.90;;;;;;5070662;28;20427;-71
2021/05/23 11:42:05;;;;;;;1.63;0.40;;;15.20;99.90;;;;;;5071817;28;20033;-71
2021/05/23 11:44:39;;;;;;;3.05;0.70;;;15.30;99.90;;;;;;5071850;28;20505;-71
2021/05/23 11:47:06;;;;;;;1.80;0.70;;;15.30;99.90;;;;;;5071976;28;20554;-71
2021/05/23 11:49:34;;;;;;;1.00;0.50;;;15.10;99.90;;;;;;5071616;28;20021;-71
2021/05/23 11:52:05;;;;;;;2.72;0.63;;;14.70;99.90;;;;;;5070758;28;20040;-71
2021/05/23 11:54:32;;;;;;;1.98;0.75;;;14.40;99.90;;;;;;5070765;28;20155;-71
2021/05/23 11:56:58;;;;;;;4.25;1.00;;;14.00;99.90;;;;;;5072115;28;20037;-71
2021/05/23 11:59:30;;;;;;;2.80;0.80;;;13.80;99.90;;;;;;5069219;28;20545;-71
2021/05/23 12:01:56;;;;;;;4.38;0.90;;;13.70;99.90;;;;;;5051907;28;20033;-71
2021/05/23 12:04:22;;;;;;;3.47;0.85;;;13.60;99.90;;;;;;5051964;28;20036;-71
2021/05/23 12:06:56;;;;;;;2.22;0.50;;;13.80;99.90;;;;;;5051894;28;20033;-71
2021/05/23 12:09:31;;;;;;;1.23;0.52;;;14.10;99.90;;;;;;5051924;28;20037;-71
2021/05/23 12:12:10;;;;;;;2.25;0.60;;;14.50;99.90;;;;;;5051690;28;20043;-71
2021/05/23 12:14:46;;;;;;;2.10;0.77;;;15.10;99.90;;;;;;5051523;28;20037;-71
2021/05/23 12:17:19;;;;;;;2.38;0.70;;;15.50;99.90;;;;;;5051464;28;20160;-70
2021/05/23 12:19:57;;;;;;;1.45;0.40;;;15.60;99.90;;;;;;5067011;28;20045;-70
2021/05/23 12:22:28;;;;;;;1.38;0.65;;;15.60;99.90;;;;;;5051376;28;20659;-70
2021/05/23 12:24:57;;;;;;;2.53;0.90;;;15.90;99.90;;;;;;5051835;28;20413;-69
2021/05/23 12:27:34;;;;;;;1.52;0.68;;;16.30;99.90;;;;;;5051607;28;20116;-69
2021/05/23 12:30:24;;;;;;;2.50;0.50;;;16.60;99.90;;;;;;5051739;28;20071;-69
2021/05/23 12:32:56;;;;;;;0.75;0.40;;;16.60;99.90;;;;;;5052403;28;20531;-69
2021/05/23 12:35:39;;;;;;;3.22;1.25;;;16.30;99.90;;;;;;5055567;28;20029;-69
2021/05/23 12:38:08;;;;;;;1.58;0.50;;;16.20;99.90;;;;;;5070776;28;20040;-69
2021/05/23 12:40:39;;;;;;;3.03;0.70;;;16.00;99.90;;;;;;5070908;28;20113;-71
2021/05/23 12:43:21;;;;;;;1.38;0.60;;;15.80;99.90;;;;;;5075366;28;20043;-71
2021/05/23 12:45:52;;;;;;;0.80;0.50;;;15.60;99.90;;;;;;5057005;28;20037;-71
2021/05/23 12:48:19;;;;;;;1.77;0.80;;;15.90;99.90;;;;;;5074848;28;20401;-71
2021/05/23 12:50:51;;;;;;;0.88;0.32;;;15.90;99.90;;;;;;5074004;28;20037;-71
2021/05/23 12:53:48;;;;;;;1.45;0.70;;;15.60;99.90;;;;;;5075140;28;20064;-71
2021/05/23 12:56:19;;;;;;;2.17;0.70;;;15.70;99.90;;;;;;5073624;28;20044;-67